Time;durP1;ratioP1;P1;durP2;ratioP2;P2;SDS_P1;SDS_P2;PMS_P1;PMS_P2;Temp;Humidity;BMP_temperature;BMP_pressure;BME280_temperature;BME280_humidity;BME280_pressure;Samples;Min_cycle;Max_cycle;Signal;HPM_P1;HPM_P2
2023/03/03 00:01:09;;;;;;;7.28;2.50;;;;;;;;;;5035456;28;20088;-24
2023/03/03 00:03:35;;;;;;;12.18;5.60;;;;;;;;;;5035090;28;20064;-24
2023/03/03 00:06:02;;;;;;;5.13;2.15;;;;;;;;;;5035163;28;20017;-24
2023/03/03 00:08:28;;;;;;;4.35;2.97;;;;;;;;;;5035353;28;20021;-25
2023/03/03 00:10:55;;;;;;;2.28;2.08;;;;;;;;;;5035266;28;20029;-25
2023/03/03 00:13:22;;;;;;;3.63;2.90;;;;;;;;;;5035119;28;20034;-25
2023/03/03 00:15:49;;;;;;;6.13;2.40;;;;;;;;;;5035439;28;20108;-24
2023/03/03 00:18:21;;;;;;;4.97;2.33;;;;;;;;;;5035149;28;20075;-24
2023/03/03 00:20:49;;;;;;;3.45;2.42;;;;;;;;;;5035026;28;20064;-24
2023/03/03 00:23:34;;;;;;;4.05;2.63;;;;;;;;;;5034924;28;20517;-24
2023/03/03 00:26:00;;;;;;;3.13;2.28;;;;;;;;;;5035601;28;20033;-25
2023/03/03 00:28:28;;;;;;;3.95;2.67;;;;;;;;;;5035506;28;20026;-25
2023/03/03 00:30:56;;;;;;;3.78;2.30;;;;;;;;;;5034951;28;20029;-24
2023/03/03 00:33:27;;;;;;;4.25;2.42;;;;;;;;;;5035095;28;20026;-24
2023/03/03 00:35:53;;;;;;;;;;;;;;;;;;5035551;28;20029;-25
2023/03/03 00:38:19;;;;;;;3.65;2.15;;;;;;;;;;5034783;28;19916;-24
2023/03/03 00:40:46;;;;;;;3.22;2.13;;;;;;;;;;5035315;28;20025;-25
2023/03/03 00:43:20;;;;;;;4.60;2.03;;;;;;;;;;5034907;28;20108;-25
2023/03/03 00:45:47;;;;;;;2.55;2.28;;;;;;;;;;5034668;28;20461;-24
2023/03/03 00:48:17;;;;;;;3.35;2.10;;;;;;;;;;5034707;28;20032;-24
2023/03/03 00:50:43;;;;;;;2.72;1.98;;;;;;;;;;5034977;28;20024;-33
2023/03/03 00:53:12;;;;;;;3.35;2.15;;;;;;;;;;5017198;28;20022;-25
2023/03/03 00:55:39;;;;;;;3.42;2.05;;;;;;;;;;5034892;28;20481;-25
2023/03/03 00:58:05;;;;;;;4.60;2.50;;;;;;;;;;5034826;28;20044;-25
2023/03/03 01:00:32;;;;;;;4.38;2.13;;;;;;;;;;5035352;28;20037;-25
2023/03/03 01:03:01;;;;;;;3.90;2.65;;;;;;;;;;5034146;28;20049;-25
2023/03/03 01:05:27;;;;;;;6.53;2.72;;;;;;;;;;5034360;28;20108;-24
2023/03/03 01:07:53;;;;;;;4.97;2.45;;;;;;;;;;5034755;28;20402;-24
2023/03/03 01:10:19;;;;;;;2.92;1.90;;;;;;;;;;5034704;28;20412;-25
2023/03/03 01:12:46;;;;;;;3.58;2.95;;;;;;;;;;5034377;28;20021;-25
2023/03/03 01:15:13;;;;;;;3.88;2.55;;;;;;;;;;5034458;28;20026;-24
2023/03/03 01:17:40;;;;;;;3.63;2.20;;;;;;;;;;5036734;28;20064;-24
2023/03/03 01:20:08;;;;;;;3.42;2.33;;;;;;;;;;5038751;28;20025;-24
2023/03/03 01:22:34;;;;;;;3.38;1.85;;;;;;;;;;5038575;28;20068;-24
2023/03/03 01:25:02;;;;;;;4.82;2.53;;;;;;;;;;5038597;28;20029;-24
2023/03/03 01:27:28;;;;;;;5.50;2.20;;;;;;;;;;5038578;28;20072;-25
2023/03/03 01:29:55;;;;;;;3.00;2.03;;;;;;;;;;5038295;28;20022;-24
2023/03/03 01:32:22;;;;;;;3.05;2.75;;;;;;;;;;5038118;28;20064;-25
2023/03/03 01:34:48;;;;;;;2.60;1.95;;;;;;;;;;5038169;28;20067;-24
2023/03/03 01:37:14;;;;;;;3.85;1.92;;;;;;;;;;5038143;28;20037;-25
2023/03/03 01:39:40;;;;;;;2.75;2.40;;;;;;;;;;5038112;28;20033;-24
2023/03/03 01:42:07;;;;;;;3.53;2.20;;;;;;;;;;5037959;28;20040;-25
2023/03/03 01:44:33;;;;;;;5.03;3.15;;;;;;;;;;5037899;28;20033;-25
2023/03/03 01:47:02;;;;;;;2.83;2.40;;;;;;;;;;5038218;28;20390;-24
2023/03/03 01:49:35;;;;;;;4.65;1.98;;;;;;;;;;5038189;28;20107;-24
2023/03/03 01:52:02;;;;;;;5.65;2.22;;;;;;;;;;5037676;28;20017;-25
2023/03/03 01:54:35;;;;;;;2.53;2.00;;;;;;;;;;5037802;28;20095;-24
2023/03/03 01:57:04;;;;;;;3.55;2.28;;;;;;;;;;5038103;28;20060;-24
2023/03/03 01:59:42;;;;;;;5.03;2.63;;;;;;;;;;5037984;28;20029;-25
2023/03/03 02:02:08;;;;;;;3.00;2.25;;;;;;;;;;5037559;28;20029;-25
2023/03/03 02:04:34;;;;;;;2.60;2.20;;;;;;;;;;5037467;28;20522;-25
2023/03/03 02:07:03;;;;;;;4.20;2.25;;;;;;;;;;5037895;28;20398;-24
2023/03/03 02:09:35;;;;;;;6.65;1.90;;;;;;;;;;5037853;28;20024;-24
2023/03/03 02:12:04;;;;;;;2.20;1.73;;;;;;;;;;5037585;28;20056;-24
2023/03/03 02:14:31;;;;;;;2.78;2.00;;;;;;;;;;5037723;28;20029;-24
2023/03/03 02:16:57;;;;;;;4.18;2.40;;;;;;;;;;5037410;28;20358;-24
2023/03/03 02:19:26;;;;;;;4.72;2.45;;;;;;;;;;5037371;28;20210;-24
2023/03/03 02:21:52;;;;;;;2.25;1.77;;;;;;;;;;5037507;28;20104;-24
2023/03/03 02:24:29;;;;;;;3.80;2.25;;;;;;;;;;5037159;28;20037;-25
2023/03/03 02:26:56;;;;;;;3.50;2.40;;;;;;;;;;5037223;28;20049;-25
2023/03/03 02:29:22;;;;;;;3.47;2.28;;;;;;;;;;5035768;28;20017;-25
2023/03/03 02:31:48;;;;;;;2.85;2.05;;;;;;;;;;5037315;28;20021;-25
2023/03/03 02:34:14;;;;;;;3.95;2.63;;;;;;;;;;5037123;28;20123;-24
2023/03/03 02:36:40;;;;;;;2.70;2.05;;;;;;;;;;5037369;28;20029;-25
2023/03/03 02:39:17;;;;;;;5.45;2.50;;;;;;;;;;5036946;28;20029;-24
2023/03/03 02:41:46;;;;;;;2.17;1.83;;;;;;;;;;5037330;28;20108;-25
2023/03/03 02:44:14;;;;;;;4.75;2.10;;;;;;;;;;5036835;28;20061;-24
2023/03/03 02:46:42;;;;;;;5.55;2.38;;;;;;;;;;5036948;28;20025;-24
2023/03/03 02:49:10;;;;;;;3.22;1.70;;;;;;;;;;5037098;28;20076;-24
2023/03/03 02:51:36;;;;;;;3.60;2.30;;;;;;;;;;5037103;28;20036;-24
2023/03/03 02:54:03;;;;;;;6.40;3.28;;;;;;;;;;5036930;28;20026;-25
2023/03/03 02:56:29;;;;;;;2.92;2.03;;;;;;;;;;5019284;28;20037;-25
2023/03/03 02:58:55;;;;;;;4.25;2.15;;;;;;;;;;5037203;28;20017;-24
2023/03/03 03:01:21;;;;;;;4.18;2.50;;;;;;;;;;5036877;28;20025;-24
2023/03/03 03:03:48;;;;;;;4.85;2.30;;;;;;;;;;5036261;28;20046;-25
2023/03/03 03:06:14;;;;;;;2.35;2.15;;;;;;;;;;5036484;28;20029;-25
2023/03/03 03:08:40;;;;;;;4.75;2.20;;;;;;;;;;5019057;28;20033;-29
2023/03/03 03:11:07;;;;;;;3.95;1.90;;;;;;;;;;5036693;28;20033;-25
2023/03/03 03:13:33;;;;;;;5.43;2.28;;;;;;;;;;5036836;28;20439;-24
2023/03/03 03:16:00;;;;;;;6.00;2.50;;;;;;;;;;5036355;28;20032;-25
2023/03/03 03:18:27;;;;;;;2.30;2.10;;;;;;;;;;5018817;28;20021;-25
2023/03/03 03:20:53;;;;;;;3.17;1.90;;;;;;;;;;5036192;28;20021;-24
2023/03/03 03:23:22;;;;;;;2.47;2.25;;;;;;;;;;5036151;28;20026;-24
2023/03/03 03:25:49;;;;;;;3.10;2.40;;;;;;;;;;5036108;28;20358;-25
2023/03/03 03:28:16;;;;;;;4.10;1.95;;;;;;;;;;5036109;28;20053;-24
2023/03/03 03:30:44;;;;;;;3.35;2.28;;;;;;;;;;5036574;28;20026;-33
2023/03/03 03:33:10;;;;;;;4.20;2.65;;;;;;;;;;5035882;28;20096;-24
2023/03/03 03:35:37;;;;;;;2.28;1.80;;;;;;;;;;5035927;28;20041;-25
2023/03/03 03:38:03;;;;;;;1.75;1.65;;;;;;;;;;5035939;28;20021;-24
2023/03/03 03:40:29;;;;;;;5.38;2.42;;;;;;;;;;5035392;28;20087;-24
2023/03/03 03:42:56;;;;;;;2.08;1.95;;;;;;;;;;5035748;28;20347;-24
2023/03/03 03:45:22;;;;;;;3.75;2.28;;;;;;;;;;5035677;28;20036;-24
2023/03/03 03:47:48;;;;;;;2.47;2.28;;;;;;;;;;5035957;28;20404;-24
2023/03/03 03:50:14;;;;;;;2.15;1.95;;;;;;;;;;5035959;28;20328;-25
2023/03/03 03:52:42;;;;;;;2.63;2.00;;;;;;;;;;5035595;28;20022;-25
2023/03/03 03:55:08;;;;;;;3.83;2.60;;;;;;;;;;5035606;28;20044;-25
2023/03/03 03:57:34;;;;;;;5.05;2.20;;;;;;;;;;5035506;28;20021;-24
2023/03/03 04:00:01;;;;;;;2.42;2.05;;;;;;;;;;5035536;28;20049;-24
2023/03/03 04:02:27;;;;;;;2.53;2.22;;;;;;;;;;5035425;28;20030;-25
2023/03/03 04:04:53;;;;;;;2.22;2.03;;;;;;;;;;5035621;28;20037;-24
2023/03/03 04:07:19;;;;;;;3.78;2.20;;;;;;;;;;5035611;28;20338;-25
2023/03/03 04:09:45;;;;;;;4.60;2.70;;;;;;;;;;5035569;28;20029;-25
2023/03/03 04:12:11;;;;;;;6.43;2.17;;;;;;;;;;5035714;28;20025;-25
2023/03/03 04:14:38;;;;;;;3.58;2.78;;;;;;;;;;5035172;28;20038;-25
2023/03/03 04:17:04;;;;;;;4.43;3.55;;;;;;;;;;5017797;28;20033;-24
2023/03/03 04:19:30;;;;;;;5.10;2.20;;;;;;;;;;5035161;28;20336;-24
2023/03/03 04:21:56;;;;;;;11.93;3.05;;;;;;;;;;5035568;28;20063;-25
2023/03/03 04:24:22;;;;;;;5.57;2.55;;;;;;;;;;5034976;28;20040;-24
2023/03/03 04:26:48;;;;;;;5.75;2.60;;;;;;;;;;5035309;28;20347;-24
2023/03/03 04:29:14;;;;;;;2.95;2.53;;;;;;;;;;5035284;28;20032;-25
2023/03/03 04:31:41;;;;;;;4.50;2.22;;;;;;;;;;5034977;28;20041;-25
2023/03/03 04:34:07;;;;;;;3.85;2.88;;;;;;;;;;5035272;28;20398;-25
2023/03/03 04:36:33;;;;;;;4.05;1.88;;;;;;;;;;5034840;28;20075;-25
2023/03/03 04:38:59;;;;;;;3.75;3.15;;;;;;;;;;5035361;28;20365;-24
2023/03/03 04:41:25;;;;;;;2.78;2.33;;;;;;;;;;5034752;28;20040;-24
2023/03/03 04:43:51;;;;;;;3.85;2.22;;;;;;;;;;5034629;28;20105;-25
2023/03/03 04:46:18;;;;;;;5.20;2.60;;;;;;;;;;5034966;28;20021;-25
2023/03/03 04:48:44;;;;;;;4.68;2.83;;;;;;;;;;5034946;28;20052;-24
2023/03/03 04:51:10;;;;;;;7.35;4.03;;;;;;;;;;5033919;28;20056;-25
2023/03/03 04:53:37;;;;;;;3.60;2.35;;;;;;;;;;5034473;28;20025;-25
2023/03/03 04:56:04;;;;;;;2.45;2.17;;;;;;;;;;5034570;28;20022;-25
2023/03/03 04:58:30;;;;;;;3.80;2.10;;;;;;;;;;5034519;28;20017;-24
2023/03/03 05:00:57;;;;;;;4.30;2.67;;;;;;;;;;5034466;28;20473;-24
2023/03/03 05:03:23;;;;;;;6.78;2.95;;;;;;;;;;5019829;28;20551;-24
2023/03/03 05:05:50;;;;;;;3.15;2.50;;;;;;;;;;5034330;28;20041;-25
2023/03/03 05:08:16;;;;;;;3.47;2.17;;;;;;;;;;5034337;28;20180;-24
2023/03/03 05:10:43;;;;;;;3.05;2.50;;;;;;;;;;5016963;28;20017;-24
2023/03/03 05:13:09;;;;;;;4.28;2.25;;;;;;;;;;5034202;28;20110;-24
2023/03/03 05:15:35;;;;;;;2.47;2.28;;;;;;;;;;5017000;28;20400;-25
2023/03/03 05:18:01;;;;;;;4.43;3.92;;;;;;;;;;5034304;28;20045;-25
2023/03/03 05:20:27;;;;;;;5.70;2.38;;;;;;;;;;5034258;28;20022;-25
2023/03/03 05:22:54;;;;;;;4.43;2.58;;;;;;;;;;5034353;28;20030;-24
2023/03/03 05:25:20;;;;;;;3.60;2.25;;;;;;;;;;5034273;28;20358;-24
2023/03/03 05:27:47;;;;;;;2.33;2.13;;;;;;;;;;5034316;28;20088;-25
2023/03/03 05:30:13;;;;;;;3.53;2.47;;;;;;;;;;5034569;28;20191;-25
2023/03/03 05:32:39;;;;;;;2.85;2.08;;;;;;;;;;5034134;28;20026;-25
2023/03/03 05:35:06;;;;;;;2.80;2.42;;;;;;;;;;5016558;28;20116;-25
2023/03/03 05:37:32;;;;;;;4.45;2.22;;;;;;;;;;5034563;28;20457;-24
2023/03/03 05:39:58;;;;;;;2.90;2.53;;;;;;;;;;5034193;28;20041;-25
2023/03/03 05:42:24;;;;;;;5.80;2.92;;;;;;;;;;5033908;28;20037;-25
2023/03/03 05:44:50;;;;;;;3.30;2.70;;;;;;;;;;5034090;28;20026;-25
2023/03/03 05:47:16;;;;;;;3.03;2.50;;;;;;;;;;5033882;28;20458;-25
2023/03/03 05:49:42;;;;;;;2.78;2.28;;;;;;;;;;5034209;28;20037;-24
2023/03/03 05:52:09;;;;;;;3.20;2.55;;;;;;;;;;5034086;28;20056;-24
2023/03/03 05:54:35;;;;;;;2.65;2.17;;;;;;;;;;5034252;28;20391;-24
2023/03/03 05:57:01;;;;;;;4.03;2.20;;;;;;;;;;5033880;28;20454;-25
2023/03/03 05:59:27;;;;;;;2.88;2.63;;;;;;;;;;5033870;28;20034;-25
2023/03/03 06:01:53;;;;;;;4.90;2.55;;;;;;;;;;5034085;28;20369;-25
2023/03/03 06:04:19;;;;;;;6.75;2.72;;;;;;;;;;5036853;28;20092;-25
2023/03/03 06:06:46;;;;;;;3.85;2.80;;;;;;;;;;5020073;28;20033;-24
2023/03/03 06:09:12;;;;;;;2.30;2.05;;;;;;;;;;5037600;28;20442;-24
2023/03/03 06:11:38;;;;;;;3.63;3.33;;;;;;;;;;5037506;28;20100;-25
2023/03/03 06:14:04;;;;;;;2.92;2.65;;;;;;;;;;5037357;28;20103;-25
2023/03/03 06:16:31;;;;;;;4.82;2.83;;;;;;;;;;5020733;28;20029;-26
2023/03/03 06:18:57;;;;;;;4.30;2.85;;;;;;;;;;5037656;28;20074;-26
2023/03/03 06:21:23;;;;;;;2.67;2.30;;;;;;;;;;5037218;28;20028;-26
2023/03/03 06:23:49;;;;;;;3.63;2.15;;;;;;;;;;5037360;28;20358;-26
2023/03/03 06:26:15;;;;;;;4.45;2.05;;;;;;;;;;5037533;28;20060;-26
2023/03/03 06:28:41;;;;;;;2.53;2.30;;;;;;;;;;5037152;28;20022;-25
2023/03/03 06:31:07;;;;;;;3.42;2.38;;;;;;;;;;5037085;28;20082;-25
2023/03/03 06:33:33;;;;;;;4.13;2.80;;;;;;;;;;5036927;28;20049;-25
2023/03/03 06:36:00;;;;;;;5.20;2.55;;;;;;;;;;5037290;28;20105;-25
2023/03/03 06:38:26;;;;;;;3.78;3.42;;;;;;;;;;5037162;28;20097;-25
2023/03/03 06:40:52;;;;;;;3.17;2.88;;;;;;;;;;5037156;28;20029;-26
2023/03/03 06:43:18;;;;;;;4.88;2.92;;;;;;;;;;5036563;28;20033;-26
2023/03/03 06:45:45;;;;;;;3.30;3.00;;;;;;;;;;5036817;28;20099;-26
2023/03/03 06:48:11;;;;;;;3.80;2.25;;;;;;;;;;5036649;28;20022;-26
2023/03/03 06:50:38;;;;;;;7.68;3.28;;;;;;;;;;5036809;28;20442;-25
2023/03/03 06:53:10;;;;;;;8.27;2.60;;;;;;;;;;5036556;28;20124;-26
2023/03/03 06:55:37;;;;;;;5.28;3.00;;;;;;;;;;5036402;28;20022;-25
2023/03/03 06:58:08;;;;;;;3.90;3.05;;;;;;;;;;5036607;28;20029;-26
2023/03/03 07:00:34;;;;;;;7.88;3.35;;;;;;;;;;5036680;28;20094;-25
2023/03/03 07:03:12;;;;;;;4.80;2.95;;;;;;;;;;5036581;28;20478;-25
2023/03/03 07:05:39;;;;;;;4.85;2.55;;;;;;;;;;5036538;28;20048;-26
2023/03/03 07:08:31;;;;;;;2.92;2.58;;;;;;;;;;5036523;28;20025;-26
2023/03/03 07:11:00;;;;;;;7.10;4.05;;;;;;;;;;5032031;28;20033;-26
2023/03/03 07:13:28;;;;;;;3.38;3.00;;;;;;;;;;5036125;28;20017;-26
2023/03/03 07:15:56;;;;;;;4.05;2.85;;;;;;;;;;5018570;28;20362;-25
2023/03/03 07:18:25;;;;;;;3.08;2.35;;;;;;;;;;5036132;28;20026;-25
2023/03/03 07:20:51;;;;;;;6.22;2.63;;;;;;;;;;5036116;28;20507;-25
2023/03/03 07:23:41;;;;;;;5.70;2.55;;;;;;;;;;5035985;28;20032;-25
2023/03/03 07:26:08;;;;;;;3.90;3.35;;;;;;;;;;5035995;28;20034;-25
2023/03/03 07:28:34;;;;;;;7.60;6.82;;;;;;;;;;5018713;28;20040;-26
2023/03/03 07:31:00;;;;;;;6.85;6.13;;;;;;;;;;5035975;28;20048;-26
2023/03/03 07:33:34;;;;;;;6.80;4.97;;;;;;;;;;5035859;28;20029;-26
2023/03/03 07:36:01;;;;;;;6.43;3.80;;;;;;;;;;5036667;28;20072;-25
2023/03/03 07:38:30;;;;;;;6.15;3.10;;;;;;;;;;5018366;28;20021;-25
2023/03/03 07:40:57;;;;;;;5.63;3.08;;;;;;;;;;5035944;28;20033;-25
2023/03/03 07:43:30;;;;;;;5.85;2.20;;;;;;;;;;5035610;28;20091;-25
2023/03/03 07:46:00;;;;;;;5.07;2.20;;;;;;;;;;5036081;28;20026;-26
2023/03/03 07:48:31;;;;;;;4.47;2.97;;;;;;;;;;5036210;28;20113;-25
2023/03/03 07:50:57;;;;;;;8.00;3.83;;;;;;;;;;5018790;28;20374;-26
2023/03/03 07:53:26;;;;;;;3.47;2.47;;;;;;;;;;5035245;28;20112;-25
2023/03/03 07:55:52;;;;;;;4.95;2.90;;;;;;;;;;5035295;28;20025;-26
2023/03/03 07:58:24;;;;;;;7.07;2.80;;;;;;;;;;5035689;28;20049;-26
2023/03/03 08:01:09;;;;;;;4.03;2.40;;;;;;;;;;5035853;28;20036;-25
2023/03/03 08:03:35;;;;;;;3.88;2.67;;;;;;;;;;5035088;28;20045;-25
2023/03/03 08:06:09;;;;;;;2.85;2.63;;;;;;;;;;5035610;28;20033;-26
2023/03/03 08:08:36;;;;;;;3.97;2.85;;;;;;;;;;5035235;28;20025;-25
2023/03/03 08:11:03;;;;;;;5.80;2.90;;;;;;;;;;5035077;28;20036;-25
2023/03/03 08:13:32;;;;;;;10.80;3.70;;;;;;;;;;5035340;28;20025;-26
2023/03/03 08:16:18;;;;;;;12.15;3.40;;;;;;;;;;5035027;28;20032;-25
2023/03/03 08:18:46;;;;;;;5.25;2.70;;;;;;;;;;5035086;28;20030;-25
2023/03/03 08:21:13;;;;;;;9.75;3.45;;;;;;;;;;5035467;28;20331;-25
2023/03/03 08:23:39;;;;;;;5.65;3.97;;;;;;;;;;5035524;28;20029;-25
2023/03/03 08:26:05;;;;;;;9.27;3.50;;;;;;;;;;5034749;28;20037;-25
2023/03/03 08:28:31;;;;;;;5.80;3.75;;;;;;;;;;5034741;28;20090;-25
2023/03/03 08:30:58;;;;;;;4.65;3.28;;;;;;;;;;5035051;28;20029;-25
2023/03/03 08:33:24;;;;;;;6.78;3.22;;;;;;;;;;5034634;28;20366;-25
2023/03/03 08:35:50;;;;;;;6.30;3.72;;;;;;;;;;5034708;28;20025;-25
2023/03/03 08:38:18;;;;;;;6.63;3.67;;;;;;;;;;5034794;28;20366;-25
2023/03/03 08:40:44;;;;;;;12.40;5.57;;;;;;;;;;5034515;28;20121;-26
2023/03/03 08:43:15;;;;;;;3.80;3.45;;;;;;;;;;5034556;28;20029;-25
2023/03/03 08:45:42;;;;;;;4.28;3.05;;;;;;;;;;5034581;28;20112;-25
2023/03/03 08:48:08;;;;;;;8.63;2.97;;;;;;;;;;5034398;28;20033;-26
2023/03/03 08:50:34;;;;;;;4.30;3.25;;;;;;;;;;5034378;28;20028;-25
2023/03/03 08:53:01;;;;;;;6.95;3.80;;;;;;;;;;5034312;28;20033;-26
2023/03/03 08:55:27;;;;;;;3.70;3.30;;;;;;;;;;5034736;28;20036;-26
2023/03/03 08:57:53;;;;;;;6.13;3.40;;;;;;;;;;5034428;28;20033;-25
2023/03/03 09:00:19;;;;;;;4.40;3.10;;;;;;;;;;5034558;28;20108;-26
2023/03/03 09:02:46;;;;;;;4.50;3.72;;;;;;;;;;5034607;28;20039;-26
2023/03/03 09:05:12;;;;;;;4.82;3.85;;;;;;;;;;5034053;28;20053;-25
2023/03/03 09:07:38;;;;;;;7.22;3.47;;;;;;;;;;5034177;28;20455;-26
2023/03/03 09:10:05;;;;;;;6.43;4.38;;;;;;;;;;5034155;28;20025;-25
2023/03/03 09:12:35;;;;;;;9.30;4.80;;;;;;;;;;5034123;28;20083;-25
2023/03/03 09:15:14;;;;;;;3.78;3.17;;;;;;;;;;5034582;28;20030;-26
2023/03/03 09:17:40;;;;;;;6.65;4.85;;;;;;;;;;5034468;28;20040;-25
2023/03/03 09:20:24;;;;;;;8.55;4.15;;;;;;;;;;5034453;28;20033;-26
2023/03/03 09:22:50;;;;;;;6.00;4.18;;;;;;;;;;5034302;28;20159;-26
2023/03/03 09:25:43;;;;;;;5.22;4.65;;;;;;;;;;5034302;28;20036;-26
2023/03/03 09:28:22;;;;;;;6.32;3.90;;;;;;;;;;5029663;28;20083;-25
2023/03/03 09:30:50;;;;;;;10.98;4.15;;;;;;;;;;5034194;28;20060;-25
2023/03/03 09:33:19;;;;;;;10.07;4.07;;;;;;;;;;5034187;28;20031;-25
2023/03/03 09:35:47;;;;;;;4.65;3.75;;;;;;;;;;5034597;28;20057;-25
2023/03/03 09:38:21;;;;;;;8.82;3.63;;;;;;;;;;5036145;28;20375;-32
2023/03/03 09:40:55;;;;;;;7.00;3.72;;;;;;;;;;5037933;28;20108;-25
2023/03/03 09:43:48;;;;;;;5.13;3.80;;;;;;;;;;5037993;28;20036;-25
2023/03/03 09:46:14;;;;;;;5.15;3.47;;;;;;;;;;5016528;28;20443;-26
2023/03/03 09:48:50;;;;;;;3.90;3.60;;;;;;;;;;5037895;28;20132;-25
2023/03/03 09:51:40;;;;;;;3.83;3.03;;;;;;;;;;5038115;28;20025;-26
2023/03/03 09:54:14;;;;;;;5.90;3.40;;;;;;;;;;5037779;28;20025;-25
2023/03/03 09:56:46;;;;;;;3.30;2.78;;;;;;;;;;5038333;28;20025;-25
2023/03/03 09:59:15;;;;;;;3.88;3.38;;;;;;;;;;5037655;28;20430;-25
2023/03/03 10:02:00;;;;;;;5.68;3.10;;;;;;;;;;5037958;28;20099;-26
2023/03/03 10:04:45;;;;;;;7.68;3.92;;;;;;;;;;5037571;28;20073;-25
2023/03/03 10:07:18;;;;;;;9.48;3.42;;;;;;;;;;5037530;28;20030;-26
2023/03/03 10:10:03;;;;;;;7.43;4.32;;;;;;;;;;5037493;28;20025;-26
2023/03/03 10:12:31;;;;;;;5.38;3.17;;;;;;;;;;5037307;28;20025;-25
2023/03/03 10:15:20;;;;;;;3.75;3.38;;;;;;;;;;5037662;28;20112;-25
2023/03/03 10:17:51;;;;;;;7.32;3.22;;;;;;;;;;5037334;28;20501;-25
2023/03/03 10:20:23;;;;;;;4.47;3.45;;;;;;;;;;5037533;28;20343;-26
2023/03/03 10:22:54;;;;;;;4.80;3.17;;;;;;;;;;5037189;28;20037;-25
2023/03/03 10:25:41;;;;;;;5.53;3.55;;;;;;;;;;5019666;28;20119;-25
2023/03/03 10:28:19;;;;;;;8.48;3.90;;;;;;;;;;5037425;28;20111;-25
2023/03/03 10:30:45;;;;;;;5.80;4.00;;;;;;;;;;5037174;28;20025;-26
2023/03/03 10:33:23;;;;;;;9.60;3.33;;;;;;;;;;5019428;28;20075;-25
2023/03/03 10:36:03;;;;;;;6.40;3.17;;;;;;;;;;5036831;28;20474;-25
2023/03/03 10:38:34;;;;;;;9.35;3.90;;;;;;;;;;5019683;28;20032;-26
2023/03/03 10:41:04;;;;;;;6.88;3.25;;;;;;;;;;5037138;28;20029;-25
2023/03/03 10:43:41;;;;;;;8.25;3.47;;;;;;;;;;5036914;28;20052;-26
2023/03/03 10:46:13;;;;;;;6.40;2.80;;;;;;;;;;5036881;28;20103;-25
2023/03/03 10:48:49;;;;;;;5.47;3.20;;;;;;;;;;5036561;28;20439;-26
2023/03/03 10:51:27;;;;;;;3.45;3.08;;;;;;;;;;5035947;28;20025;-26
2023/03/03 10:53:59;;;;;;;10.00;3.70;;;;;;;;;;5036703;28;20040;-25
2023/03/03 10:56:25;;;;;;;5.82;3.90;;;;;;;;;;5036434;28;20068;-25
2023/03/03 10:59:11;;;;;;;5.25;3.33;;;;;;;;;;5036290;28;20454;-25
2023/03/03 11:01:47;;;;;;;5.88;2.83;;;;;;;;;;4986736;28;20483;-26
2023/03/03 11:04:25;;;;;;;9.15;3.95;;;;;;;;;;5035949;28;20050;-26
2023/03/03 11:06:52;;;;;;;5.43;3.15;;;;;;;;;;5036302;28;20097;-25
2023/03/03 11:09:39;;;;;;;5.78;3.08;;;;;;;;;;5036142;28;20223;-26
2023/03/03 11:12:08;;;;;;;4.43;3.00;;;;;;;;;;5036029;28;20028;-26
2023/03/03 11:14:47;;;;;;;5.82;3.30;;;;;;;;;;5036211;28;20103;-26
2023/03/03 11:17:25;;;;;;;5.43;3.20;;;;;;;;;;5036304;28;20026;-25
2023/03/03 11:20:08;;;;;;;9.35;3.80;;;;;;;;;;5036098;28;20362;-26
2023/03/03 11:22:37;;;;;;;8.05;3.30;;;;;;;;;;5036255;28;20443;-26
2023/03/03 11:25:06;;;;;;;4.97;3.92;;;;;;;;;;5035808;28;20036;-26
2023/03/03 11:27:51;;;;;;;9.30;3.75;;;;;;;;;;5035785;28;20021;-26
2023/03/03 11:30:37;;;;;;;8.20;3.53;;;;;;;;;;5018208;28;20443;-25
2023/03/03 11:33:07;;;;;;;8.75;3.75;;;;;;;;;;5035638;28;20056;-26
2023/03/03 11:35:33;;;;;;;10.98;3.92;;;;;;;;;;5036033;28;20029;-25
2023/03/03 11:38:06;;;;;;;10.00;4.38;;;;;;;;;;5035607;28;20025;-26
2023/03/03 11:40:55;;;;;;;18.55;4.35;;;;;;;;;;5035542;28;20033;-25
2023/03/03 11:43:40;;;;;;;9.32;4.97;;;;;;;;;;5022711;28;20045;-25
2023/03/03 11:46:09;;;;;;;13.15;4.47;;;;;;;;;;5035221;28;20071;-26
2023/03/03 11:48:58;;;;;;;13.00;4.43;;;;;;;;;;5017940;28;20470;-26
2023/03/03 11:51:27;;;;;;;4.95;4.18;;;;;;;;;;5035362;28;20067;-25
2023/03/03 11:53:57;;;;;;;12.27;4.63;;;;;;;;;;5035514;28;20032;-26
2023/03/03 11:56:26;;;;;;;10.13;4.53;;;;;;;;;;5035575;28;20112;-27
2023/03/03 11:59:13;;;;;;;8.90;4.20;;;;;;;;;;5035271;28;20071;-25
2023/03/03 12:01:41;;;;;;;5.55;3.70;;;;;;;;;;5018325;28;20030;-26
2023/03/03 12:04:15;;;;;;;9.30;3.67;;;;;;;;;;5034921;28;20049;-25
2023/03/03 12:06:44;;;;;;;7.38;3.53;;;;;;;;;;5035752;28;20124;-25
2023/03/03 12:09:26;;;;;;;12.70;4.15;;;;;;;;;;5017817;28;20564;-25
2023/03/03 12:12:11;;;;;;;4.32;3.92;;;;;;;;;;5017648;28;20029;-26
2023/03/03 12:14:43;;;;;;;6.03;3.35;;;;;;;;;;5017669;28;20086;-25
2023/03/03 12:17:09;;;;;;;6.82;3.60;;;;;;;;;;5035263;28;20064;-26
2023/03/03 12:19:54;;;;;;;7.40;3.45;;;;;;;;;;5034917;28;20175;-26
2023/03/03 12:22:40;;;;;;;8.77;3.75;;;;;;;;;;5035287;28;20030;-25
2023/03/03 12:25:10;;;;;;;6.57;3.70;;;;;;;;;;5034916;28;20088;-26
2023/03/03 12:27:48;;;;;;;7.93;3.47;;;;;;;;;;5035379;28;20383;-25
2023/03/03 12:30:31;;;;;;;12.32;4.35;;;;;;;;;;5034958;28;20029;-26
2023/03/03 12:33:12;;;;;;;5.13;3.38;;;;;;;;;;5034811;28;20458;-26
2023/03/03 12:35:38;;;;;;;;;;;;;;;;;;5035543;28;20060;-26
2023/03/03 12:38:18;;;;;;;7.68;3.83;;;;;;;;;;5034494;28;19963;-26
2023/03/03 12:41:10;;;;;;;8.95;4.10;;;;;;;;;;5034978;28;20421;-26
2023/03/03 12:43:44;;;;;;;5.40;3.80;;;;;;;;;;5030149;28;20102;-26
2023/03/03 12:46:19;;;;;;;8.15;3.50;;;;;;;;;;5034711;28;20336;-26
2023/03/03 12:48:46;;;;;;;8.63;3.72;;;;;;;;;;5034356;28;20021;-26
2023/03/03 12:51:25;;;;;;;8.57;3.67;;;;;;;;;;5034242;28;20404;-26
2023/03/03 12:54:09;;;;;;;5.80;3.65;;;;;;;;;;5034143;28;20038;-26
2023/03/03 12:56:35;;;;;;;9.23;3.85;;;;;;;;;;5034568;28;20028;-25
2023/03/03 12:59:12;;;;;;;12.57;3.78;;;;;;;;;;5034343;28;20100;-26
2023/03/03 13:01:57;;;;;;;7.57;3.60;;;;;;;;;;5034105;28;20029;-26
2023/03/03 13:04:23;;;;;;;8.95;4.03;;;;;;;;;;5034026;28;20053;-25
2023/03/03 13:06:55;;;;;;;7.53;3.55;;;;;;;;;;5033848;28;20025;-26
2023/03/03 13:09:30;;;;;;;4.18;3.67;;;;;;;;;;5033730;28;20029;-26
2023/03/03 13:12:19;;;;;;;9.70;3.95;;;;;;;;;;5033418;28;20025;-26
2023/03/03 13:14:51;;;;;;;7.82;3.90;;;;;;;;;;5034048;28;20033;-25
2023/03/03 13:17:21;;;;;;;11.77;3.78;;;;;;;;;;5033951;28;20331;-25
2023/03/03 13:20:11;;;;;;;8.93;3.60;;;;;;;;;;5034042;28;20112;-26
2023/03/03 13:22:50;;;;;;;5.90;3.08;;;;;;;;;;5034349;28;20091;-25
2023/03/03 13:25:26;;;;;;;7.05;3.25;;;;;;;;;;5034096;28;20030;-26
2023/03/03 13:27:55;;;;;;;6.03;3.03;;;;;;;;;;5034316;28;20032;-26
2023/03/03 13:30:21;;;;;;;10.73;3.40;;;;;;;;;;5033868;28;20022;-25
2023/03/03 13:32:50;;;;;;;7.40;4.95;;;;;;;;;;5034006;28;20355;-26
2023/03/03 13:35:31;;;;;;;11.30;4.93;;;;;;;;;;5033754;28;20087;-26
2023/03/03 13:38:18;;;;;;;14.15;4.88;;;;;;;;;;5034156;28;20059;-26
2023/03/03 13:41:03;;;;;;;9.90;3.83;;;;;;;;;;5033612;28;20041;-26
2023/03/03 13:43:30;;;;;;;11.55;3.65;;;;;;;;;;5033499;28;20034;-26
2023/03/03 13:46:00;;;;;;;13.05;4.28;;;;;;;;;;5033602;28;20037;-26
2023/03/03 13:48:32;;;;;;;12.27;3.85;;;;;;;;;;5034445;28;20018;-26
2023/03/03 13:51:14;;;;;;;14.70;4.32;;;;;;;;;;5034022;28;20351;-25
2023/03/03 13:53:49;;;;;;;6.32;3.20;;;;;;;;;;5033987;28;20400;-25
2023/03/03 13:56:15;;;;;;;11.77;3.67;;;;;;;;;;5033887;28;20026;-26
2023/03/03 13:59:00;;;;;;;9.00;4.03;;;;;;;;;;5034039;28;20026;-26
2023/03/03 14:01:35;;;;;;;20.35;4.25;;;;;;;;;;5017219;28;20128;-26
2023/03/03 14:04:13;;;;;;;9.65;3.33;;;;;;;;;;5033420;28;20042;-25
2023/03/03 14:06:41;;;;;;;11.90;3.72;;;;;;;;;;5033747;28;20029;-26
2023/03/03 14:09:26;;;;;;;7.97;3.35;;;;;;;;;;5015990;28;20021;-26
2023/03/03 14:12:25;;;;;;;9.02;4.88;;;;;;;;;;5033401;28;20026;-26
2023/03/03 14:14:56;;;;;;;7.28;3.30;;;;;;;;;;4980574;28;20033;-26
2023/03/03 14:17:26;;;;;;;6.65;3.45;;;;;;;;;;5016326;28;20434;-25
2023/03/03 14:19:59;;;;;;;5.88;4.07;;;;;;;;;;5016110;28;20091;-25
2023/03/03 14:22:29;;;;;;;6.07;2.97;;;;;;;;;;5033369;28;20045;-26
2023/03/03 14:25:01;;;;;;;7.35;4.10;;;;;;;;;;5036371;28;20144;-25
2023/03/03 14:27:33;;;;;;;6.95;3.38;;;;;;;;;;5020510;28;20025;-26
2023/03/03 14:29:59;;;;;;;10.40;3.90;;;;;;;;;;5037300;28;20025;-26
2023/03/03 14:32:26;;;;;;;5.88;3.70;;;;;;;;;;5036999;28;20037;-26
2023/03/03 14:35:12;;;;;;;6.80;3.63;;;;;;;;;;5036816;28;20034;-25
2023/03/03 14:37:43;;;;;;;10.20;3.45;;;;;;;;;;5036994;28;20091;-25
2023/03/03 14:40:09;;;;;;;9.48;5.28;;;;;;;;;;5037061;28;20026;-25
2023/03/03 14:42:38;;;;;;;7.78;3.13;;;;;;;;;;5036743;28;20044;-25
2023/03/03 14:45:23;;;;;;;7.40;4.82;;;;;;;;;;5036890;28;20077;-25
2023/03/03 14:47:49;;;;;;;5.75;3.00;;;;;;;;;;5036675;28;20026;-26
2023/03/03 14:50:47;;;;;;;10.30;4.18;;;;;;;;;;5036968;28;20022;-26
2023/03/03 14:53:19;;;;;;;5.07;3.58;;;;;;;;;;4983336;28;20389;-25
2023/03/03 14:55:47;;;;;;;4.28;3.55;;;;;;;;;;5036670;28;20358;-26
2023/03/03 14:58:27;;;;;;;6.70;3.58;;;;;;;;;;5018851;28;20035;-25
2023/03/03 15:01:19;;;;;;;5.00;3.30;;;;;;;;;;5036475;28;20026;-26
2023/03/03 15:03:51;;;;;;;6.18;4.05;;;;;;;;;;4978965;28;20046;-26